Terminal Aerodrome Forecast
Issued by NWS

Home | Current Version | Previous Version | Text Only | Print | Product List | Glossary On
Versions: 1 2 3 4 5 6 7 8 9 10 11 12 13 14 15 16 17 18 19 20 21 22 23 24 25 26
000
FTUS41 KOKX 300200 AAA
TAFHPN
TAF AMD
KHPN 300241Z 3003/3024 VRB04KT P6SM SCT250
     FM300800 VRB03KT P6SM FEW020 SCT250
     FM301500 17006KT P6SM SCT030 BKN150
     FM301900 18010KT P6SM SCT040 BKN120
      AMD NOT SKED=

USA.gov is the U.S. government's official web portal to all federal, state and local government web resources and services.